Time;durP1;ratioP1;P1;durP2;ratioP2;P2;SDS_P1;SDS_P2;PMS_P1;PMS_P2;Temp;Humidity;BMP_temperature;BMP_pressure;BME280_temperature;BME280_humidity;BME280_pressure;Samples;Min_cycle;Max_cycle;Signal;HPM_P1;HPM_P2
2022/11/28 00:01:43;;;;;;;3.95;3.37;;;;;;;8.46;66.24;100817.09;4366674;32;33502;-89
2022/11/28 00:04:12;;;;;;;4.15;3.30;;;;;;;8.58;66.06;100823.00;4366648;32;34665;-89
2022/11/28 00:06:47;;;;;;;3.28;1.60;;;;;;;8.72;65.75;100821.84;4366860;32;32720;-88
2022/11/28 00:09:20;;;;;;;1.25;1.23;;;;;;;8.77;65.62;100816.50;4378540;32;33131;-88
2022/11/28 00:11:48;;;;;;;3.25;3.12;;;;;;;8.90;65.16;100817.97;4366463;32;33240;-89
2022/11/28 00:14:18;;;;;;;3.60;2.08;;;;;;;9.25;63.82;100819.00;4366537;32;32672;-89
2022/11/28 00:16:46;;;;;;;1.42;1.33;;;;;;;8.88;64.79;100813.66;4353758;32;33392;-89
2022/11/28 00:19:14;;;;;;;1.30;1.23;;;;;;;8.95;64.65;100818.75;4353731;32;31963;-89
2022/11/28 00:21:46;;;;;;;1.98;1.10;;;;;;;8.76;65.29;100817.41;4376520;32;32934;-90
2022/11/28 00:24:13;;;;;;;1.50;1.45;;;;;;;8.67;66.00;100814.94;4376913;32;33827;-90
2022/11/28 00:26:41;;;;;;;3.62;2.42;;;;;;;8.75;65.74;100820.94;4362535;32;32623;-89
2022/11/28 00:29:10;;;;;;;3.42;2.53;;;;;;;8.86;65.21;100821.56;4375367;32;33066;-89
2022/11/28 00:31:41;;;;;;;2.50;2.03;;;;;;;8.84;65.30;100809.34;4375452;32;33898;-89
2022/11/28 00:34:12;;;;;;;2.20;2.00;;;;;;;8.80;65.82;100816.44;4376675;32;32329;-89
2022/11/28 00:36:43;;;;;;;4.82;2.15;;;;;;;8.98;65.22;100808.16;4375512;32;32939;-89
2022/11/28 00:39:12;;;;;;;1.92;1.77;;;;;;;8.84;65.71;100806.72;4376360;32;32548;-88
2022/11/28 00:41:42;;;;;;;1.00;0.60;;;;;;;8.80;65.98;100811.16;4376078;32;34439;-88
2022/11/28 00:44:11;;;;;;;3.08;2.28;;;;;;;8.93;65.91;100810.03;4374098;32;33777;-88
2022/11/28 00:46:39;;;;;;;8.75;3.05;;;;;;;8.80;66.11;100815.56;4374798;32;33025;-88
2022/11/28 00:49:08;;;;;;;2.92;2.60;;;;;;;8.61;66.85;100825.59;4376246;32;34237;-87
2022/11/28 00:51:37;;;;;;;1.98;1.37;;;;;;;8.80;66.54;100819.06;4360570;32;34157;-88
2022/11/28 00:54:05;;;;;;;2.12;1.52;;;;;;;8.87;66.46;100806.63;4363243;32;34751;-87
2022/11/28 00:56:37;;;;;;;2.03;1.87;;;;;;;9.00;65.94;100818.66;4351557;32;34192;-88
2022/11/28 00:59:06;;;;;;;8.88;3.40;;;;;;;8.94;66.48;100822.28;4375786;32;33700;-88
2022/11/28 01:01:42;;;;;;;1.10;1.10;;;;;;;9.04;66.26;100819.47;4375490;32;34667;-87
2022/11/28 01:04:13;;;;;;;1.65;1.55;;;;;;;8.96;66.10;100822.25;4375296;32;32967;-87
2022/11/28 01:06:45;;;;;;;1.98;1.85;;;;;;;8.94;66.44;100819.66;4376135;32;32565;-87
2022/11/28 01:09:16;;;;;;;1.42;1.35;;;;;;;8.97;66.44;100824.88;4349637;32;32755;-87
2022/11/28 01:11:44;;;;;;;4.18;2.25;;;;;;;8.76;67.02;100830.56;4376198;32;33869;-88
2022/11/28 01:14:12;;;;;;;1.73;1.62;;;;;;;9.10;65.72;100814.06;4363569;32;33594;-88
2022/11/28 01:16:40;;;;;;;5.50;2.75;;;;;;;8.88;66.28;100814.53;4375661;32;34487;-89
2022/11/28 01:19:09;;;;;;;0.32;0.32;;;;;;;8.79;66.97;100805.94;4370458;32;33398;-90
2022/11/28 01:21:37;;;;;;;5.30;2.90;;;;;;;8.93;66.20;100806.53;4375552;32;33479;-89
2022/11/28 01:24:05;;;;;;;4.28;1.83;;;;;;;8.87;66.29;100801.38;4375378;32;33350;-89
2022/11/28 01:26:33;;;;;;;5.85;4.60;;;;;;;8.87;66.55;100804.88;4363430;32;34533;-89
2022/11/28 01:29:01;;;;;;;0.43;0.43;;;;;;;8.44;67.83;100813.59;4363573;32;32685;-89
2022/11/28 01:31:29;;;;;;;4.90;3.35;;;;;;;8.28;68.16;100814.78;4376262;32;33044;-90
2022/11/28 01:33:58;;;;;;;1.67;1.35;;;;;;;8.26;67.99;100808.69;4376239;32;32116;-90
2022/11/28 01:36:28;;;;;;;1.70;1.60;;;;;;;8.42;67.77;100807.53;4361987;32;34059;-89
2022/11/28 01:38:56;;;;;;;1.27;1.27;;;;;;;8.72;66.42;100797.28;4376717;32;33443;-90
2022/11/28 01:41:26;;;;;;;1.12;1.12;;;;;;;8.73;66.26;100801.66;4362786;32;32800;-90
2022/11/28 01:44:08;;;;;;;3.45;1.55;;;;;;;8.60;66.83;100805.44;4364007;32;33693;-90
2022/11/28 01:46:36;;;;;;;0.50;0.50;;;;;;;8.57;67.00;100793.19;4350880;32;32705;-89
2022/11/28 01:49:07;;;;;;;1.55;0.95;;;;;;;8.51;66.80;100781.94;4376795;32;33355;-91
2022/11/28 01:51:44;;;;;;;2.15;2.05;;;;;;;8.50;66.91;100780.16;4376361;32;32757;-89
2022/11/28 01:54:12;;;;;;;6.73;2.40;;;;;;;8.51;67.13;100781.94;4376214;32;33490;-89
2022/11/28 01:56:50;;;;;;;0.55;0.55;;;;;;;8.44;67.34;100775.91;4376478;32;33807;-89
2022/11/28 01:59:18;;;;;;;4.65;2.35;;;;;;;8.39;67.46;100778.63;4362931;32;32605;-89
2022/11/28 02:01:46;;;;;;;1.85;1.70;;;;;;;8.49;66.99;100767.91;4377029;32;33854;-90
2022/11/28 02:04:16;;;;;;;3.92;3.20;;;;;;;8.54;66.96;100766.06;4377019;32;33747;-91
2022/11/28 02:06:53;;;;;;;0.17;0.17;;;;;;;8.62;66.75;100765.00;4376340;32;33129;-90
2022/11/28 02:09:30;;;;;;;0.88;0.88;;;;;;;8.63;66.80;100760.59;4375423;32;33691;-91
2022/11/28 02:12:45;;;;;;;1.17;1.02;;;;;;;8.58;66.75;100759.84;4374549;32;32650;-91
2022/11/28 02:16:04;;;;;;;0.43;0.43;;;;;;;8.50;66.77;100756.47;4363068;32;32927;-91
2022/11/28 02:19:15;;;;;;;3.05;2.58;;;;;;;8.28;67.39;100764.78;4382916;32;33726;-91
2022/11/28 02:22:13;;;;;;;1.27;1.23;;;;;;;8.16;67.13;100759.72;4355196;32;34827;-92
2022/11/28 02:24:56;;;;;;;1.55;1.48;;;;;;;8.18;67.02;100757.94;4367944;32;32695;-90
2022/11/28 02:28:23;;;;;;;1.20;1.17;;;;;;;8.16;66.56;100752.69;4365525;32;33747;-91
2022/11/28 02:31:32;;;;;;;0.50;0.50;;;;;;;8.22;66.55;100757.00;4365238;32;33261;-90
2022/11/28 02:34:48;;;;;;;0.90;0.90;;;;;;;8.27;66.09;100752.53;4406614;32;32802;-92
2022/11/28 02:37:53;;;;;;;0.20;0.20;;;;;;;8.11;66.01;100751.06;4395487;32;32412;-90
2022/11/28 02:40:53;;;;;;;1.12;1.12;;;;;;;8.27;65.83;100747.25;4395854;32;32860;-89
2022/11/28 02:44:11;;;;;;;0.75;0.75;;;;;;;8.24;65.72;100749.06;4386050;32;33353;-88
2022/11/28 02:46:57;;;;;;;0.52;0.52;;;;;;;8.44;64.96;100744.31;4395248;32;33698;-88
2022/11/28 02:49:28;;;;;;;0.43;0.43;;;;;;;8.38;64.67;100734.78;4381514;32;33419;-89
2022/11/28 02:52:04;;;;;;;1.80;1.65;;;;;;;8.22;65.05;100738.59;4384240;32;32738;-88
2022/11/28 02:54:32;;;;;;;3.50;2.50;;;;;;;8.08;65.54;100737.97;4382520;32;32286;-88
2022/11/28 02:57:01;;;;;;;0.55;0.55;;;;;;;8.15;64.88;100743.06;4388120;32;32707;-89
2022/11/28 02:59:36;;;;;;;1.30;0.55;;;;;;;8.16;65.07;100736.91;4395181;32;32859;-88
2022/11/28 03:02:12;;;;;;;1.95;1.73;;;;;;;8.18;64.76;100731.66;4391078;32;33094;-87
2022/11/28 03:04:55;;;;;;;5.25;2.45;;;;;;;8.08;64.98;100737.97;4393030;32;33892;-87
2022/11/28 03:08:01;;;;;;;1.60;1.17;;;;;;;8.09;65.14;100731.81;4397135;32;32243;-88
2022/11/28 03:14:59;;;;;;;0.52;0.52;;;;;;;7.98;65.42;100725.91;4406583;32;34809;-88
2022/11/28 03:17:43;;;;;;;1.50;1.45;;;;;;;7.92;65.55;100729.47;4388123;32;33366;-88
2022/11/28 03:20:25;;;;;;;1.27;1.25;;;;;;;7.90;65.68;100715.50;4399732;32;32274;-90
2022/11/28 03:23:20;;;;;;;1.17;1.08;;;;;;;8.03;65.37;100718.78;4382931;32;33540;-90
2022/11/28 03:26:10;;;;;;;4.57;1.75;;;;;;;7.84;65.88;100715.63;4395014;32;33044;-92
2022/11/28 03:29:02;;;;;;;3.70;1.80;;;;;;;7.83;65.68;100717.38;4406608;32;33807;-91
2022/11/28 03:31:50;;;;;;;1.35;1.35;;;;;;;7.78;66.03;100715.72;4337582;32;33211;-92
2022/11/28 03:34:45;;;;;;;0.55;0.55;;;;;;;7.77;66.32;100706.97;4359143;32;32821;-91
2022/11/28 03:38:05;;;;;;;2.70;1.60;;;;;;;7.78;66.35;100699.94;4347915;32;33077;-90
2022/11/28 03:40:39;;;;;;;5.78;1.12;;;;;;;7.84;66.62;100694.59;4345166;32;32648;-90
2022/11/28 03:43:14;;;;;;;0.85;0.85;;;;;;;7.80;66.34;100693.78;4351609;32;32260;-90
2022/11/28 03:45:48;;;;;;;2.80;1.85;;;;;;;7.87;66.47;100684.84;4353605;32;33010;-90
2022/11/28 03:48:41;;;;;;;4.12;2.67;;;;;;;7.99;66.45;100675.88;4365734;32;32838;-91
2022/11/28 03:51:26;;;;;;;1.92;1.75;;;;;;;8.03;66.33;100676.72;4352913;32;33150;-87
2022/11/28 03:54:03;;;;;;;6.68;2.70;;;;;;;7.95;66.82;100671.59;4345697;32;33542;-89
2022/11/28 03:56:59;;;;;;;1.12;1.12;;;;;;;7.99;66.68;100665.38;4352463;32;33230;-90
2022/11/28 03:59:50;;;;;;;0.77;0.77;;;;;;;8.07;66.63;100674.00;4352723;32;33575;-90
2022/11/28 04:02:25;;;;;;;2.60;1.17;;;;;;;7.98;67.05;100670.66;4360007;32;32382;-90
2022/11/28 04:05:18;;;;;;;4.68;1.98;;;;;;;8.03;67.00;100664.41;4332461;32;32541;-91
2022/11/28 04:08:12;;;;;;;1.40;1.30;;;;;;;8.12;66.57;100664.25;4358401;32;33075;-91
2022/11/28 04:11:13;;;;;;;0.55;0.55;;;;;;;8.18;66.35;100652.72;4364187;32;32705;-91
2022/11/28 04:13:58;;;;;;;1.55;1.05;;;;;;;7.86;67.61;100654.22;4345064;32;33169;-90
2022/11/28 04:17:12;;;;;;;0.75;0.75;;;;;;;7.51;68.37;100661.88;4345947;32;32524;-88
2022/11/28 04:19:49;;;;;;;0.13;0.13;;;;;;;7.74;67.65;100651.81;4361137;32;33138;-88
2022/11/28 04:22:33;;;;;;;1.05;0.95;;;;;;;7.50;68.29;100652.25;4375618;32;33943;-88
2022/11/28 04:25:05;;;;;;;0.93;0.90;;;;;;;7.47;68.49;100658.44;4363471;32;34125;-86
2022/11/28 04:27:37;;;;;;;1.17;1.17;;;;;;;7.50;68.27;100650.50;4364408;32;32995;-86
2022/11/28 04:30:06;;;;;;;0.57;0.57;;;;;;;7.15;69.08;100659.81;4340774;32;33463;-86
2022/11/28 04:32:38;;;;;;;1.23;1.20;;;;;;;7.21;69.04;100648.34;4374647;32;32437;-88
2022/11/28 04:35:10;;;;;;;0.50;0.50;;;;;;;7.43;68.43;100652.34;4369239;32;33972;-87
2022/11/28 04:37:39;;;;;;;1.67;1.58;;;;;;;7.78;66.96;100653.47;4366077;32;33100;-88
2022/11/28 04:40:10;;;;;;;1.35;1.10;;;;;;;7.78;67.00;100653.47;4368976;32;33612;-87
2022/11/28 04:45:36;;;;;;;0.90;0.90;;;;;;;7.75;67.02;100650.06;4369454;32;34666;-87
2022/11/28 04:48:06;;;;;;;3.40;1.60;;;;;;;7.77;66.98;100657.00;4348101;32;32521;-87
2022/11/28 04:50:58;;;;;;;2.05;1.92;;;;;;;7.68;66.70;100654.53;4352336;32;33057;-87
2022/11/28 04:53:34;;;;;;;1.00;0.68;;;;;;;7.77;66.83;100650.87;4344890;32;32819;-87
2022/11/28 04:56:07;;;;;;;0.22;0.22;;;;;;;7.57;66.97;100646.00;4355608;32;33356;-88
2022/11/28 04:58:39;;;;;;;2.17;1.98;;;;;;;7.25;68.01;100647.41;4361898;32;32211;-89
2022/11/28 05:01:09;;;;;;;1.02;1.00;;;;;;;7.43;67.65;100647.09;4358289;32;33799;-89
2022/11/28 05:03:38;;;;;;;1.40;1.30;;;;;;;7.63;66.84;100645.88;4367595;32;33640;-89
2022/11/28 05:06:09;;;;;;;0.80;0.80;;;;;;;7.74;66.69;100649.19;4370291;32;34017;-90
2022/11/28 05:08:39;;;;;;;1.08;0.98;;;;;;;7.43;67.79;100649.72;4369366;32;32055;-90
2022/11/28 05:11:07;;;;;;;3.50;2.83;;;;;;;7.72;66.89;100650.97;4368696;32;33560;-90
2022/11/28 05:13:36;;;;;;;0.82;0.80;;;;;;;7.79;66.76;100649.12;4354071;32;32854;-90
2022/11/28 05:16:06;;;;;;;1.23;1.23;;;;;;;7.88;66.37;100648.91;4358938;32;32296;-88
2022/11/28 05:18:35;;;;;;;1.12;1.00;;;;;;;7.84;66.71;100648.13;4369803;32;33399;-88
2022/11/28 05:21:07;;;;;;;1.80;1.60;;;;;;;7.68;67.10;100659.81;4355377;32;32922;-88
2022/11/28 05:23:39;;;;;;;1.92;0.82;;;;;;;7.89;66.43;100646.28;4369594;32;33902;-88
2022/11/28 05:26:19;;;;;;;3.80;2.27;;;;;;;7.96;66.18;100649.63;4349943;32;34037;-89
2022/11/28 05:28:49;;;;;;;1.00;1.00;;;;;;;7.85;66.52;100663.00;4363392;32;32859;-89
2022/11/28 05:31:19;;;;;;;1.62;1.20;;;;;;;8.10;65.97;100659.88;4363135;32;33187;-89
2022/11/28 05:33:48;;;;;;;3.55;1.90;;;;;;;8.06;66.08;100653.81;4359639;32;34743;-91
2022/11/28 05:36:17;;;;;;;2.00;1.17;;;;;;;8.13;66.00;100665.09;4365630;32;33240;-91
2022/11/28 05:39:18;;;;;;;2.67;2.08;;;;;;;8.22;65.67;100664.91;4357821;32;35279;-90
2022/11/28 05:42:06;;;;;;;1.15;1.05;;;;;;;8.06;66.30;100666.97;4354958;32;32487;-87
2022/11/28 05:44:35;;;;;;;1.75;1.65;;;;;;;8.13;66.08;100670.38;4352595;32;34884;-87
2022/11/28 05:47:04;;;;;;;0.37;0.37;;;;;;;8.11;66.06;100677.41;4339037;32;32947;-87
2022/11/28 05:49:32;;;;;;;1.70;1.60;;;;;;;8.10;66.05;100675.69;4352417;32;33968;-87
2022/11/28 05:52:02;;;;;;;1.10;1.10;;;;;;;8.22;65.74;100670.19;4352114;32;32417;-89
2022/11/28 05:54:30;;;;;;;3.83;1.80;;;;;;;8.26;65.66;100674.50;4338866;32;34753;-88
2022/11/28 05:57:01;;;;;;;1.33;1.30;;;;;;;7.67;67.34;100681.72;4352071;32;33906;-88
2022/11/28 05:59:32;;;;;;;0.43;0.43;;;;;;;7.78;66.97;100677.13;4342183;32;31969;-88
2022/11/28 06:02:05;;;;;;;1.05;1.00;;;;;;;7.98;66.47;100670.66;4332228;32;32815;-88
2022/11/28 06:04:36;;;;;;;1.17;1.08;;;;;;;7.90;66.72;100669.03;4355317;32;32913;-86
2022/11/28 06:07:05;;;;;;;2.83;2.62;;;;;;;7.96;66.18;100670.69;4347079;32;32734;-86
2022/11/28 06:09:36;;;;;;;5.30;2.28;;;;;;;7.92;66.61;100664.59;4342938;32;33538;-88
2022/11/28 06:12:11;;;;;;;3.78;3.00;;;;;;;7.88;66.75;100669.94;4360425;32;32905;-87
2022/11/28 06:14:42;;;;;;;0.85;0.82;;;;;;;7.76;67.28;100680.72;4355430;32;33859;-86
2022/11/28 06:17:13;;;;;;;1.85;1.75;;;;;;;7.54;67.98;100681.06;4343920;32;33797;-88
2022/11/28 06:19:41;;;;;;;4.15;2.80;;;;;;;7.85;66.80;100684.03;4341688;32;33190;-89
2022/11/28 06:24:47;;;;;;;1.92;1.83;;;;;;;8.07;65.83;100681.88;4343020;32;33374;-86
2022/11/28 06:27:16;;;;;;;0.50;0.50;;;;;;;8.10;65.80;100670.41;4356203;32;33458;-86
2022/11/28 06:29:44;;;;;;;0.95;0.95;;;;;;;7.93;66.37;100673.38;4359098;32;32458;-86
2022/11/28 06:32:16;;;;;;;0.65;0.65;;;;;;;8.01;66.07;100675.84;4357269;32;32110;-86
2022/11/28 06:34:48;;;;;;;0.73;0.73;;;;;;;7.80;66.27;100675.38;4346118;32;34088;-86
2022/11/28 06:37:24;;;;;;;0.75;0.75;;;;;;;7.95;65.92;100671.59;4348246;32;34605;-86
2022/11/28 06:39:58;;;;;;;6.03;2.85;;;;;;;7.92;65.70;100676.88;4355991;32;32874;-85
2022/11/28 06:42:38;;;;;;;0.90;0.68;;;;;;;7.88;66.21;100681.37;4330012;32;33157;-87
2022/11/28 06:45:07;;;;;;;1.45;1.45;;;;;;;7.96;65.96;100676.78;4329667;32;33429;-86
2022/11/28 06:47:35;;;;;;;6.00;3.80;;;;;;;8.01;65.99;100671.44;4343103;32;32636;-86
2022/11/28 06:50:04;;;;;;;2.50;1.87;;;;;;;7.72;66.56;100681.66;4356299;32;33134;-85
2022/11/28 06:52:32;;;;;;;2.28;1.95;;;;;;;7.92;66.26;100677.75;4337726;32;33128;-92
2022/11/28 06:55:18;;;;;;;2.87;2.47;;;;;;;7.80;66.48;100682.38;4366110;32;33652;-92
2022/11/28 06:58:01;;;;;;;3.15;2.20;;;;;;;7.87;66.43;100689.25;4395250;32;33339;-91
2022/11/28 07:00:53;;;;;;;4.05;3.62;;;;;;;7.81;66.49;100682.34;4338868;32;32804;-92
2022/11/28 07:03:38;;;;;;;0.77;0.77;;;;;;;7.84;66.66;100687.56;4382226;32;33567;-92
2022/11/28 07:06:12;;;;;;;3.75;2.67;;;;;;;7.86;66.20;100683.12;4378493;32;34356;-93
2022/11/28 07:08:53;;;;;;;0.52;0.52;;;;;;;8.02;65.76;100682.84;4380384;32;32809;-92
2022/11/28 07:11:41;;;;;;;2.40;1.08;;;;;;;8.09;65.71;100681.84;4363484;32;32248;-92
2022/11/28 07:14:23;;;;;;;2.00;1.80;;;;;;;7.87;65.98;100676.97;4360498;32;33896;-93
2022/11/28 07:17:06;;;;;;;2.15;2.00;;;;;;;7.71;66.04;100688.69;4370117;32;33607;-91
2022/11/28 07:20:04;;;;;;;2.05;1.95;;;;;;;7.77;66.13;100680.66;4361904;32;32302;-93
2022/11/28 07:22:48;;;;;;;1.25;0.95;;;;;;;7.86;65.87;100690.16;4353158;32;32171;-93
2022/11/28 07:25:34;;;;;;;1.60;1.27;;;;;;;8.01;65.69;100686.38;4367135;32;32764;-92
2022/11/28 07:28:30;;;;;;;1.62;1.52;;;;;;;7.94;65.96;100689.13;4408697;32;34481;-92
2022/11/28 07:31:18;;;;;;;1.37;1.27;;;;;;;7.92;66.12;100695.28;4367950;32;33234;-92
2022/11/28 07:34:11;;;;;;;2.08;1.75;;;;;;;7.87;66.06;100695.38;4367481;32;32605;-93
2022/11/28 07:36:52;;;;;;;8.23;2.05;;;;;;;7.69;66.67;100690.44;4382970;32;33557;-92
2022/11/28 07:39:36;;;;;;;1.77;1.67;;;;;;;7.81;66.33;100687.59;4430738;32;33131;-92
2022/11/28 07:42:28;;;;;;;0.57;0.50;;;;;;;7.80;66.43;100683.25;4360380;32;33763;-93
2022/11/28 07:45:11;;;;;;;2.05;1.55;;;;;;;7.82;66.42;100670.94;4357387;32;33235;-91
2022/11/28 07:48:03;;;;;;;1.95;1.60;;;;;;;7.90;65.79;100674.28;4354303;32;33136;-92
2022/11/28 07:50:49;;;;;;;0.40;0.40;;;;;;;7.71;65.84;100678.16;4395606;32;32858;-92
2022/11/28 07:53:42;;;;;;;0.77;0.77;;;;;;;7.44;66.54;100669.84;4369021;32;33895;-92
2022/11/28 07:56:30;;;;;;;3.05;2.03;;;;;;;7.38;67.26;100664.72;4392325;32;33640;-91
2022/11/28 07:59:22;;;;;;;1.48;1.45;;;;;;;7.05;67.84;100665.25;4378817;32;32554;-91
2022/11/28 08:02:06;;;;;;;3.12;2.17;;;;;;;6.97;67.76;100664.50;4337731;32;33447;-91
2022/11/28 08:04:48;;;;;;;0.73;0.73;;;;;;;6.81;68.27;100667.34;4373765;32;32699;-92
2022/11/28 08:07:33;;;;;;;2.33;0.73;;;;;;;6.73;68.74;100669.22;4359412;32;33022;-92
2022/11/28 08:10:16;;;;;;;;;;;;;;;6.89;67.94;100676.00;4383488;32;32234;-91
2022/11/28 08:13:09;;;;;;;0.90;0.73;;;;;;;6.87;67.56;100672.50;4372990;32;32392;-93
2022/11/28 08:15:49;;;;;;;3.33;2.28;;;;;;;6.97;67.29;100675.00;4365868;32;34864;-91
2022/11/28 08:18:47;;;;;;;0.73;0.73;;;;;;;7.02;66.82;100670.53;4383808;32;35348;-92
2022/11/28 08:21:33;;;;;;;8.70;1.20;;;;;;;6.75;66.93;100680.56;4374109;32;32930;-93
2022/11/28 08:24:17;;;;;;;7.72;3.50;;;;;;;6.84;66.98;100674.34;4353946;32;32633;-92
2022/11/28 08:27:11;;;;;;;0.35;0.35;;;;;;;6.85;66.72;100676.94;4358585;32;33152;-93
2022/11/28 08:29:55;;;;;;;2.33;1.42;;;;;;;6.89;66.63;100681.25;4397876;32;32030;-93
2022/11/28 08:32:39;;;;;;;1.50;1.40;;;;;;;6.91;66.37;100689.09;4373586;32;32699;-93
2022/11/28 08:35:33;;;;;;;0.28;0.28;;;;;;;6.75;66.50;100688.44;4340346;32;34141;-90
2022/11/28 08:38:16;;;;;;;0.37;0.37;;;;;;;7.17;65.13;100680.84;4436593;32;33145;-90
2022/11/28 08:41:11;;;;;;;1.35;1.20;;;;;;;7.09;65.25;100688.81;4366737;32;31832;-91
2022/11/28 08:43:56;;;;;;;0.47;0.47;;;;;;;7.01;65.56;100687.19;4373166;32;33431;-91
2022/11/28 08:46:38;;;;;;;1.52;1.48;;;;;;;7.13;65.01;100684.41;4382871;32;34342;-93
2022/11/28 08:49:20;;;;;;;1.08;0.98;;;;;;;7.40;64.18;100683.94;4363416;32;32932;-92
2022/11/28 08:52:17;;;;;;;0.80;0.80;;;;;;;7.28;64.55;100689.41;4372463;32;36185;-93
2022/11/28 08:54:58;;;;;;;1.05;1.05;;;;;;;7.10;64.52;100684.44;4381002;32;33541;-92
2022/11/28 08:57:40;;;;;;;0.75;0.65;;;;;;;7.11;64.29;100681.78;4381150;32;33185;-93
2022/11/28 09:00:32;;;;;;;2.08;1.65;;;;;;;6.89;64.98;100691.75;4344968;32;33751;-92
2022/11/28 09:03:20;;;;;;;6.43;3.10;;;;;;;7.03;64.81;100688.06;4414691;32;32560;-92
2022/11/28 09:06:15;;;;;;;1.95;1.62;;;;;;;6.75;64.81;100682.34;4379177;32;33563;-92
2022/11/28 09:08:54;;;;;;;0.50;0.50;;;;;;;6.26;66.80;100683.81;4351030;32;33330;-93
2022/11/28 09:11:38;;;;;;;0.60;0.60;;;;;;;6.85;65.04;100673.44;4372037;32;32015;-93
2022/11/28 09:14:21;;;;;;;1.05;1.05;;;;;;;7.11;63.86;100670.41;4352979;32;33560;-93
2022/11/28 09:17:14;;;;;;;0.22;0.22;;;;;;;6.84;64.34;100669.09;4399592;32;34412;-93
2022/11/28 09:19:57;;;;;;;1.90;1.80;;;;;;;6.91;63.94;100668.94;4367876;32;33302;-93
2022/11/28 09:22:41;;;;;;;2.28;1.70;;;;;;;7.02;63.92;100668.78;4354500;32;20619;-93
2022/11/28 09:25:39;;;;;;;3.92;1.90;;;;;;;7.15;63.04;100662.44;4352533;32;32051;-93
2022/11/28 09:28:19;;;;;;;1.40;1.20;;;;;;;7.27;62.58;100664.03;4355644;32;33530;-92
2022/11/28 09:31:19;;;;;;;0.75;0.75;;;;;;;6.95;63.49;100663.66;4364433;32;36158;-92
2022/11/28 09:34:02;;;;;;;2.20;2.08;;;;;;;7.21;63.44;100664.09;4358380;32;32402;-93
2022/11/28 09:36:48;;;;;;;0.40;0.40;;;;;;;6.99;63.51;100665.34;4352160;32;31694;-93
2022/11/28 09:39:45;;;;;;;1.15;0.50;;;;;;;7.15;63.31;100667.69;4338163;32;31960;-92
2022/11/28 09:42:42;;;;;;;1.70;1.60;;;;;;;7.01;63.78;100663.56;4370832;32;34556;-92
2022/11/28 09:45:26;;;;;;;2.30;1.48;;;;;;;7.01;63.18;100660.94;4366469;32;33795;-91
2022/11/28 09:48:21;;;;;;;4.05;2.45;;;;;;;7.18;62.68;100651.03;4375637;32;32749;-90
2022/11/28 09:51:34;;;;;;;1.25;1.12;;;;;;;7.22;62.49;100644.84;4378198;32;33086;-93
2022/11/28 09:54:39;;;;;;;1.27;1.17;;;;;;;6.78;63.64;100640.28;4360017;32;33550;-91
2022/11/28 09:57:45;;;;;;;0.57;0.57;;;;;;;7.12;62.64;100640.63;4359165;32;34400;-93
2022/11/28 10:00:37;;;;;;;0.65;0.62;;;;;;;7.16;61.02;100637.06;4402623;32;32575;-92
2022/11/28 10:03:41;;;;;;;0.98;0.98;;;;;;;7.04;61.98;100626.75;4392115;32;33686;-92
2022/11/28 10:06:46;;;;;;;0.00;0.00;;;;;;;7.50;61.09;100623.34;4362580;32;35402;-93
2022/11/28 10:09:32;;;;;;;1.17;1.17;;;;;;;7.32;60.83;100624.56;4355866;32;32942;-93
2022/11/28 10:12:42;;;;;;;0.30;0.30;;;;;;;7.05;61.55;100625.88;4395722;32;31795;-92
2022/11/28 10:18:57;;;;;;;5.15;1.50;;;;;;;6.61;62.35;100623.03;4402994;32;32878;-93
2022/11/28 10:21:55;;;;;;;4.28;1.80;;;;;;;7.15;61.30;100623.06;4352804;32;33742;-93
2022/11/28 10:24:40;;;;;;;1.45;1.35;;;;;;;7.13;61.08;100621.38;4379689;32;31664;-93
2022/11/28 10:27:36;;;;;;;1.75;1.65;;;;;;;7.09;60.11;100619.69;4380767;32;33631;-93
2022/11/28 10:30:21;;;;;;;5.57;2.05;;;;;;;6.60;61.38;100616.06;4387150;32;32743;-93
2022/11/28 10:33:39;;;;;;;0.47;0.47;;;;;;;6.96;60.29;100620.75;4352259;32;32203;-93
2022/11/28 10:37:01;;;;;;;3.50;2.75;;;;;;;7.05;59.99;100610.09;4386470;32;32041;-94
2022/11/28 10:39:44;;;;;;;0.95;0.40;;;;;;;7.00;59.73;100604.94;4346763;32;33493;-93
2022/11/28 10:47:15;;;;;;;0.75;0.75;;;;;;;6.84;59.27;100595.56;4334228;32;34790;-93
2022/11/28 10:50:11;;;;;;;1.65;1.55;;;;;;;6.84;60.11;100599.06;4332595;33;33713;-94
2022/11/28 10:52:59;;;;;;;2.25;2.15;;;;;;;6.69;60.78;100591.41;4372425;32;32821;-91
2022/11/28 10:56:09;;;;;;;2.28;2.08;;;;;;;6.73;60.10;100584.34;4358762;32;34489;-94
2022/11/28 10:59:08;;;;;;;0.40;0.40;;;;;;;6.77;59.53;100581.66;4346923;32;33118;-92
2022/11/28 11:01:52;;;;;;;2.20;2.05;;;;;;;6.72;60.20;100578.25;4383772;32;32210;-94
2022/11/28 11:04:36;;;;;;;0.35;0.35;;;;;;;6.77;60.11;100576.41;4355731;32;32472;-93
2022/11/28 11:07:29;;;;;;;1.25;1.25;;;;;;;6.71;60.90;100576.53;4363375;32;32975;-93
2022/11/28 11:10:20;;;;;;;2.40;2.20;;;;;;;7.13;59.32;100571.47;4326516;33;32433;-93
2022/11/28 11:13:19;;;;;;;2.47;2.28;;;;;;;7.11;59.29;100567.97;4359901;32;32434;-94
2022/11/28 11:20:37;;;;;;;1.02;1.02;;;;;;;7.54;58.53;100575.09;4391861;32;34565;-92
2022/11/28 11:23:21;;;;;;;1.23;1.23;;;;;;;7.41;58.55;100562.19;4387333;32;32770;-92
2022/11/28 11:26:09;;;;;;;3.20;2.60;;;;;;;7.37;59.09;100568.41;4354031;32;31782;-94
2022/11/28 11:28:55;;;;;;;1.95;1.85;;;;;;;7.21;59.68;100566.91;4369680;32;33247;-95
2022/11/28 11:31:43;;;;;;;0.40;0.40;;;;;;;7.34;58.77;100563.19;4374882;32;33314;-95
2022/11/28 11:34:27;;;;;;;1.00;0.95;;;;;;;7.62;58.11;100563.53;4414117;32;33078;-95
2022/11/28 11:37:36;;;;;;;1.42;1.33;;;;;;;7.27;58.83;100569.47;4346426;32;33913;-95
2022/11/28 11:40:22;;;;;;;2.35;2.25;;;;;;;7.78;57.65;100556.19;4358374;32;32678;-95
2022/11/28 11:43:22;;;;;;;2.60;0.98;;;;;;;7.70;58.13;100556.38;4383311;32;34018;-93
2022/11/28 11:49:04;;;;;;;2.08;1.98;;;;;;;7.57;58.43;100559.28;4381703;32;33488;-95
2022/11/28 11:52:26;;;;;;;5.78;3.72;;;;;;;7.88;58.38;100549.88;4379349;32;32519;-94
2022/11/28 11:55:11;;;;;;;;;;;;;;;7.61;59.43;100555.69;4359937;32;33776;-96
2022/11/28 11:58:05;;;;;;;2.05;1.92;;;;;;;7.85;59.11;100549.94;4359148;32;34055;-96
2022/11/28 12:00:55;;;;;;;8.90;5.03;;;;;;;8.02;58.42;100544.31;4385435;32;31790;-96
2022/11/28 12:08:17;;;;;;;14.60;4.07;;;;;;;7.51;59.80;100539.25;4365576;32;37048;-94
2022/11/28 12:11:27;;;;;;;1.87;1.65;;;;;;;7.59;58.10;100539.06;4366282;32;32646;-94
2022/11/28 12:18:34;;;;;;;1.08;0.98;;;;;;;7.39;58.46;100539.47;4420790;32;32961;-95
2022/11/28 12:21:35;;;;;;;2.50;2.28;;;;;;;6.84;59.55;100536.06;4392382;32;32678;-95
2022/11/28 12:24:28;;;;;;;1.62;1.58;;;;;;;7.77;57.06;100515.03;4382920;32;33467;-95
2022/11/28 12:27:41;;;;;;;2.65;2.22;;;;;;;7.46;59.08;100519.22;4324628;32;32065;-95
2022/11/28 12:30:23;;;;;;;2.03;1.92;;;;;;;7.40;59.18;100526.28;4378839;32;32862;-94
2022/11/28 12:33:28;;;;;;;1.30;1.30;;;;;;;7.25;59.37;100516.06;4410926;32;33901;-94
2022/11/28 12:36:20;;;;;;;5.20;1.80;;;;;;;7.56;57.78;100512.88;4356884;32;33421;-94
2022/11/28 12:39:36;;;;;;;0.73;0.73;;;;;;;7.53;57.82;100508.53;4370549;32;34450;-93
2022/11/28 12:42:33;;;;;;;1.10;1.10;;;;;;;7.22;58.96;100510.03;4414130;32;33915;-94
2022/11/28 12:45:40;;;;;;;2.05;1.87;;;;;;;7.67;57.34;100505.63;4369033;32;34363;-94
2022/11/28 12:49:01;;;;;;;1.87;1.77;;;;;;;7.61;58.00;100500.50;4401885;32;33231;-94
2022/11/28 12:52:22;;;;;;;2.85;1.75;;;;;;;7.28;58.09;100504.66;4366392;32;32709;-93
2022/11/28 12:55:24;;;;;;;1.45;1.35;;;;;;;7.35;58.63;100506.25;4402365;32;33334;-94
2022/11/28 12:58:25;;;;;;;2.15;1.98;;;;;;;7.34;58.76;100505.37;4366616;32;35447;-93
2022/11/28 13:01:28;;;;;;;4.90;3.67;;;;;;;7.43;57.32;100496.47;4355875;32;32902;-94
2022/11/28 13:04:26;;;;;;;2.47;2.28;;;;;;;7.10;58.56;100497.97;4383173;32;35365;-93
2022/11/28 13:07:28;;;;;;;1.05;1.05;;;;;;;7.71;57.09;100494.16;4435383;32;33110;-94
2022/11/28 13:10:30;;;;;;;1.90;1.70;;;;;;;7.56;57.65;100495.34;4374510;32;33012;-93
2022/11/28 13:13:31;;;;;;;4.78;1.98;;;;;;;7.44;57.68;100501.69;4325040;33;32679;-94
2022/11/28 13:16:42;;;;;;;1.30;1.30;;;;;;;7.24;58.61;100498.59;4347079;32;33164;-93
2022/11/28 13:19:41;;;;;;;2.28;2.15;;;;;;;7.74;57.66;100488.84;4348392;32;32464;-93
2022/11/28 13:22:28;;;;;;;2.67;1.95;;;;;;;7.35;58.03;100490.50;4317850;33;32663;-93
2022/11/28 13:25:43;;;;;;;1.15;1.05;;;;;;;6.95;59.32;100495.63;4368889;32;33081;-94
2022/11/28 13:28:43;;;;;;;3.05;2.85;;;;;;;7.33;58.82;100493.16;4375139;32;32498;-94